sensor_id;sensor_type;location;lat;lon;timestamp;P1;durP1;ratioP1;P2;durP2;ratioP2
68647;SDS011;55632;51.962;16.116;2023-11-22T00:03:22;16.45;;;8.90;;
68647;SDS011;55632;51.962;16.116;2023-11-22T00:08:24;18.45;;;8.57;;
68647;SDS011;55632;51.962;16.116;2023-11-22T00:13:25;19.02;;;8.27;;
68647;SDS011;55632;51.962;16.116;2023-11-22T00:23:27;11.40;;;6.33;;
68647;SDS011;55632;51.962;16.116;2023-11-22T00:28:30;14.18;;;7.85;;
68647;SDS011;55632;51.962;16.116;2023-11-22T00:33:31;14.82;;;8.73;;
68647;SDS011;55632;51.962;16.116;2023-11-22T00:38:31;17.08;;;9.23;;
68647;SDS011;55632;51.962;16.116;2023-11-22T00:43:35;13.25;;;7.60;;
68647;SDS011;55632;51.962;16.116;2023-11-22T00:48:37;17.55;;;8.90;;
68647;SDS011;55632;51.962;16.116;2023-11-22T00:53:38;19.20;;;8.68;;
68647;SDS011;55632;51.962;16.116;2023-11-22T00:58:39;14.27;;;7.85;;
68647;SDS011;55632;51.962;16.116;2023-11-22T01:03:40;17.65;;;8.57;;
68647;SDS011;55632;51.962;16.116;2023-11-22T01:08:41;17.63;;;8.40;;
68647;SDS011;55632;51.962;16.116;2023-11-22T01:13:42;14.10;;;8.43;;
68647;SDS011;55632;51.962;16.116;2023-11-22T01:18:43;16.80;;;8.00;;
68647;SDS011;55632;51.962;16.116;2023-11-22T01:23:46;13.07;;;7.55;;
68647;SDS011;55632;51.962;16.116;2023-11-22T01:28:47;12.82;;;6.90;;
68647;SDS011;55632;51.962;16.116;2023-11-22T01:33:48;12.32;;;7.43;;
68647;SDS011;55632;51.962;16.116;2023-11-22T01:38:48;15.23;;;7.68;;
68647;SDS011;55632;51.962;16.116;2023-11-22T01:43:50;14.93;;;8.07;;
68647;SDS011;55632;51.962;16.116;2023-11-22T01:48:52;15.18;;;8.18;;
68647;SDS011;55632;51.962;16.116;2023-11-22T01:53:54;16.45;;;8.32;;
68647;SDS011;55632;51.962;16.116;2023-11-22T01:58:57;14.15;;;7.85;;
68647;SDS011;55632;51.962;16.116;2023-11-22T02:04:00;17.55;;;7.38;;
68647;SDS011;55632;51.962;16.116;2023-11-22T02:09:01;13.70;;;7.75;;
68647;SDS011;55632;51.962;16.116;2023-11-22T02:14:02;19.33;;;9.00;;
68647;SDS011;55632;51.962;16.116;2023-11-22T02:19:03;13.88;;;7.93;;
68647;SDS011;55632;51.962;16.116;2023-11-22T02:24:07;13.02;;;6.40;;
68647;SDS011;55632;51.962;16.116;2023-11-22T02:29:08;12.68;;;7.38;;
68647;SDS011;55632;51.962;16.116;2023-11-22T02:34:09;10.32;;;6.82;;
68647;SDS011;55632;51.962;16.116;2023-11-22T02:39:10;13.23;;;6.65;;
68647;SDS011;55632;51.962;16.116;2023-11-22T02:44:11;12.50;;;7.03;;
68647;SDS011;55632;51.962;16.116;2023-11-22T02:49:17;11.35;;;6.43;;
68647;SDS011;55632;51.962;16.116;2023-11-22T02:59:19;11.20;;;6.30;;
68647;SDS011;55632;51.962;16.116;2023-11-22T03:04:20;12.25;;;7.13;;
68647;SDS011;55632;51.962;16.116;2023-11-22T03:09:21;10.98;;;5.68;;
68647;SDS011;55632;51.962;16.116;2023-11-22T03:14:23;12.02;;;6.60;;
68647;SDS011;55632;51.962;16.116;2023-11-22T03:19:24;10.85;;;6.25;;
68647;SDS011;55632;51.962;16.116;2023-11-22T03:24:25;12.00;;;6.75;;
68647;SDS011;55632;51.962;16.116;2023-11-22T03:29:26;9.52;;;4.88;;
68647;SDS011;55632;51.962;16.116;2023-11-22T03:34:28;12.65;;;6.30;;
68647;SDS011;55632;51.962;16.116;2023-11-22T03:39:29;10.68;;;6.47;;
68647;SDS011;55632;51.962;16.116;2023-11-22T03:44:30;13.95;;;6.40;;
68647;SDS011;55632;51.962;16.116;2023-11-22T03:49:32;13.55;;;6.18;;
68647;SDS011;55632;51.962;16.116;2023-11-22T03:54:33;10.90;;;6.00;;
68647;SDS011;55632;51.962;16.116;2023-11-22T03:59:34;56.83;;;21.25;;
68647;SDS011;55632;51.962;16.116;2023-11-22T04:04:36;9.82;;;6.95;;
68647;SDS011;55632;51.962;16.116;2023-11-22T04:09:39;11.20;;;6.70;;
68647;SDS011;55632;51.962;16.116;2023-11-22T04:14:40;14.73;;;8.98;;
68647;SDS011;55632;51.962;16.116;2023-11-22T04:19:41;9.20;;;5.47;;
68647;SDS011;55632;51.962;16.116;2023-11-22T04:24:42;14.95;;;8.85;;
68647;SDS011;55632;51.962;16.116;2023-11-22T04:29:43;11.18;;;5.70;;
68647;SDS011;55632;51.962;16.116;2023-11-22T04:34:43;14.43;;;7.05;;
68647;SDS011;55632;51.962;16.116;2023-11-22T04:58:50;10.93;;;6.30;;
68647;SDS011;55632;51.962;16.116;2023-11-22T05:03:51;13.30;;;6.43;;
68647;SDS011;55632;51.962;16.116;2023-11-22T05:08:51;12.15;;;5.97;;
68647;SDS011;55632;51.962;16.116;2023-11-22T05:13:52;13.57;;;7.03;;
68647;SDS011;55632;51.962;16.116;2023-11-22T05:18:53;10.98;;;5.63;;
68647;SDS011;55632;51.962;16.116;2023-11-22T05:23:54;9.48;;;5.45;;
68647;SDS011;55632;51.962;16.116;2023-11-22T05:28:55;16.77;;;7.32;;
68647;SDS011;55632;51.962;16.116;2023-11-22T05:33:55;15.18;;;7.57;;
68647;SDS011;55632;51.962;16.116;2023-11-22T05:38:56;10.80;;;7.57;;
68647;SDS011;55632;51.962;16.116;2023-11-22T05:43:59;13.77;;;7.40;;
68647;SDS011;55632;51.962;16.116;2023-11-22T05:49:00;30.08;;;17.15;;
68647;SDS011;55632;51.962;16.116;2023-11-22T05:54:01;15.30;;;6.18;;
68647;SDS011;55632;51.962;16.116;2023-11-22T05:59:02;18.60;;;9.43;;
68647;SDS011;55632;51.962;16.116;2023-11-22T06:04:04;12.98;;;6.05;;
68647;SDS011;55632;51.962;16.116;2023-11-22T06:09:05;28.02;;;10.60;;
68647;SDS011;55632;51.962;16.116;2023-11-22T06:14:07;13.90;;;7.30;;
68647;SDS011;55632;51.962;16.116;2023-11-22T06:19:08;12.57;;;6.25;;
68647;SDS011;55632;51.962;16.116;2023-11-22T06:24:08;14.55;;;7.68;;
68647;SDS011;55632;51.962;16.116;2023-11-22T06:29:11;20.73;;;11.90;;
68647;SDS011;55632;51.962;16.116;2023-11-22T06:39:13;14.00;;;7.20;;
68647;SDS011;55632;51.962;16.116;2023-11-22T06:44:14;19.58;;;11.85;;
68647;SDS011;55632;51.962;16.116;2023-11-22T06:49:15;41.42;;;14.02;;
68647;SDS011;55632;51.962;16.116;2023-11-22T06:54:18;50.05;;;13.70;;
68647;SDS011;55632;51.962;16.116;2023-11-22T06:59:20;30.25;;;10.43;;
68647;SDS011;55632;51.962;16.116;2023-11-22T07:04:21;79.65;;;26.52;;
68647;SDS011;55632;51.962;16.116;2023-11-22T07:09:23;33.67;;;13.32;;
68647;SDS011;55632;51.962;16.116;2023-11-22T07:14:24;33.05;;;14.95;;
68647;SDS011;55632;51.962;16.116;2023-11-22T07:24:25;36.63;;;14.38;;
68647;SDS011;55632;51.962;16.116;2023-11-22T07:29:26;22.80;;;10.38;;
68647;SDS011;55632;51.962;16.116;2023-11-22T07:34:29;41.53;;;19.25;;
68647;SDS011;55632;51.962;16.116;2023-11-22T07:39:30;42.60;;;19.13;;
68647;SDS011;55632;51.962;16.116;2023-11-22T07:44:31;24.70;;;13.30;;
68647;SDS011;55632;51.962;16.116;2023-11-22T07:49:33;35.25;;;13.98;;
68647;SDS011;55632;51.962;16.116;2023-11-22T07:54:36;170.32;;;42.00;;
68647;SDS011;55632;51.962;16.116;2023-11-22T08:04:55;38.03;;;18.75;;
68647;SDS011;55632;51.962;16.116;2023-11-22T08:09:56;24.30;;;12.52;;
68647;SDS011;55632;51.962;16.116;2023-11-22T08:14:57;32.65;;;17.30;;
68647;SDS011;55632;51.962;16.116;2023-11-22T08:19:58;23.17;;;12.00;;
68647;SDS011;55632;51.962;16.116;2023-11-22T08:25:03;31.88;;;18.40;;
68647;SDS011;55632;51.962;16.116;2023-11-22T08:30:05;20.52;;;11.63;;
68647;SDS011;55632;51.962;16.116;2023-11-22T08:35:07;39.03;;;23.15;;
68647;SDS011;55632;51.962;16.116;2023-11-22T08:40:09;24.60;;;12.60;;
68647;SDS011;55632;51.962;16.116;2023-11-22T08:45:20;57.50;;;33.47;;
68647;SDS011;55632;51.962;16.116;2023-11-22T08:55:23;18.73;;;9.60;;
68647;SDS011;55632;51.962;16.116;2023-11-22T09:00:25;16.45;;;8.15;;
68647;SDS011;55632;51.962;16.116;2023-11-22T09:05:28;15.95;;;9.38;;
68647;SDS011;55632;51.962;16.116;2023-11-22T09:10:29;16.05;;;9.32;;
68647;SDS011;55632;51.962;16.116;2023-11-22T09:15:31;16.30;;;8.27;;
68647;SDS011;55632;51.962;16.116;2023-11-22T09:20:34;14.25;;;8.63;;
68647;SDS011;55632;51.962;16.116;2023-11-22T09:25:34;17.67;;;12.05;;
68647;SDS011;55632;51.962;16.116;2023-11-22T09:30:36;25.13;;;14.77;;
68647;SDS011;55632;51.962;16.116;2023-11-22T09:35:41;20.77;;;10.73;;
68647;SDS011;55632;51.962;16.116;2023-11-22T09:40:45;19.83;;;10.75;;
68647;SDS011;55632;51.962;16.116;2023-11-22T09:45:49;18.92;;;9.93;;
68647;SDS011;55632;51.962;16.116;2023-11-22T09:56:03;26.95;;;13.27;;
68647;SDS011;55632;51.962;16.116;2023-11-22T10:01:06;20.27;;;9.43;;
68647;SDS011;55632;51.962;16.116;2023-11-22T10:06:08;18.10;;;9.65;;
68647;SDS011;55632;51.962;16.116;2023-11-22T10:11:09;21.00;;;10.00;;
68647;SDS011;55632;51.962;16.116;2023-11-22T10:21:18;23.25;;;8.98;;
68647;SDS011;55632;51.962;16.116;2023-11-22T10:26:27;13.90;;;7.72;;
68647;SDS011;55632;51.962;16.116;2023-11-22T10:31:28;21.17;;;9.55;;
68647;SDS011;55632;51.962;16.116;2023-11-22T10:36:29;15.18;;;8.68;;
68647;SDS011;55632;51.962;16.116;2023-11-22T10:46:32;13.98;;;7.78;;
68647;SDS011;55632;51.962;16.116;2023-11-22T10:51:33;11.85;;;7.47;;
68647;SDS011;55632;51.962;16.116;2023-11-22T10:56:40;13.43;;;7.85;;
68647;SDS011;55632;51.962;16.116;2023-11-22T11:01:47;15.43;;;8.15;;
68647;SDS011;55632;51.962;16.116;2023-11-22T11:06:51;14.30;;;8.25;;
68647;SDS011;55632;51.962;16.116;2023-11-22T11:11:54;21.50;;;8.52;;
68647;SDS011;55632;51.962;16.116;2023-11-22T11:16:56;18.30;;;9.15;;
68647;SDS011;55632;51.962;16.116;2023-11-22T11:21:59;12.82;;;7.50;;
68647;SDS011;55632;51.962;16.116;2023-11-22T11:27:02;18.17;;;7.78;;
68647;SDS011;55632;51.962;16.116;2023-11-22T11:32:03;12.48;;;7.97;;
68647;SDS011;55632;51.962;16.116;2023-11-22T11:37:05;13.55;;;7.55;;
68647;SDS011;55632;51.962;16.116;2023-11-22T11:42:09;11.00;;;7.55;;
68647;SDS011;55632;51.962;16.116;2023-11-22T11:47:11;13.60;;;8.00;;
68647;SDS011;55632;51.962;16.116;2023-11-22T11:52:12;34.58;;;14.43;;
68647;SDS011;55632;51.962;16.116;2023-11-22T11:57:13;17.73;;;8.63;;
68647;SDS011;55632;51.962;16.116;2023-11-22T12:02:13;16.20;;;10.38;;
68647;SDS011;55632;51.962;16.116;2023-11-22T12:07:16;31.92;;;16.75;;
68647;SDS011;55632;51.962;16.116;2023-11-22T12:12:17;13.73;;;7.47;;
68647;SDS011;55632;51.962;16.116;2023-11-22T12:17:18;13.75;;;7.78;;
68647;SDS011;55632;51.962;16.116;2023-11-22T12:22:20;16.63;;;9.82;;
68647;SDS011;55632;51.962;16.116;2023-11-22T12:27:21;16.42;;;8.38;;
68647;SDS011;55632;51.962;16.116;2023-11-22T12:32:26;38.67;;;11.23;;
68647;SDS011;55632;51.962;16.116;2023-11-22T12:37:27;12.18;;;6.55;;
68647;SDS011;55632;51.962;16.116;2023-11-22T12:42:28;10.10;;;6.50;;
68647;SDS011;55632;51.962;16.116;2023-11-22T12:47:31;22.73;;;12.73;;
68647;SDS011;55632;51.962;16.116;2023-11-22T12:52:35;45.17;;;25.58;;
68647;SDS011;55632;51.962;16.116;2023-11-22T12:57:36;20.02;;;9.80;;
68647;SDS011;55632;51.962;16.116;2023-11-22T13:02:38;15.32;;;9.23;;
68647;SDS011;55632;51.962;16.116;2023-11-22T13:07:43;15.65;;;9.55;;
68647;SDS011;55632;51.962;16.116;2023-11-22T13:12:44;24.20;;;14.68;;
68647;SDS011;55632;51.962;16.116;2023-11-22T13:17:46;18.50;;;10.32;;
68647;SDS011;55632;51.962;16.116;2023-11-22T13:27:48;22.92;;;12.00;;
68647;SDS011;55632;51.962;16.116;2023-11-22T13:32:49;16.55;;;9.07;;
68647;SDS011;55632;51.962;16.116;2023-11-22T13:37:50;20.00;;;10.48;;
68647;SDS011;55632;51.962;16.116;2023-11-22T13:42:52;42.40;;;19.20;;
68647;SDS011;55632;51.962;16.116;2023-11-22T13:47:54;21.48;;;11.32;;
68647;SDS011;55632;51.962;16.116;2023-11-22T13:53:01;20.83;;;11.35;;
68647;SDS011;55632;51.962;16.116;2023-11-22T13:58:02;56.42;;;18.92;;
68647;SDS011;55632;51.962;16.116;2023-11-22T14:03:05;20.13;;;10.38;;
68647;SDS011;55632;51.962;16.116;2023-11-22T14:13:07;34.15;;;14.85;;
68647;SDS011;55632;51.962;16.116;2023-11-22T14:18:08;17.27;;;9.70;;
68647;SDS011;55632;51.962;16.116;2023-11-22T14:23:09;24.67;;;12.52;;
68647;SDS011;55632;51.962;16.116;2023-11-22T14:28:10;27.02;;;15.23;;
68647;SDS011;55632;51.962;16.116;2023-11-22T14:38:11;49.72;;;22.40;;
68647;SDS011;55632;51.962;16.116;2023-11-22T14:43:13;103.57;;;42.65;;
68647;SDS011;55632;51.962;16.116;2023-11-22T14:48:14;100.22;;;35.85;;
68647;SDS011;55632;51.962;16.116;2023-11-22T14:53:15;103.38;;;35.95;;
68647;SDS011;55632;51.962;16.116;2023-11-22T14:58:17;64.95;;;23.48;;
68647;SDS011;55632;51.962;16.116;2023-11-22T15:03:17;66.68;;;26.55;;
68647;SDS011;55632;51.962;16.116;2023-11-22T15:08:18;67.38;;;24.45;;
68647;SDS011;55632;51.962;16.116;2023-11-22T15:13:19;71.07;;;27.13;;
68647;SDS011;55632;51.962;16.116;2023-11-22T15:23:21;90.90;;;33.38;;
68647;SDS011;55632;51.962;16.116;2023-11-22T15:33:23;136.47;;;41.20;;
68647;SDS011;55632;51.962;16.116;2023-11-22T15:43:24;143.48;;;43.88;;
68647;SDS011;55632;51.962;16.116;2023-11-22T15:48:27;119.97;;;42.15;;
68647;SDS011;55632;51.962;16.116;2023-11-22T15:53:29;131.23;;;46.85;;
68647;SDS011;55632;51.962;16.116;2023-11-22T15:58:29;368.48;;;123.20;;
68647;SDS011;55632;51.962;16.116;2023-11-22T16:03:30;247.20;;;82.38;;
68647;SDS011;55632;51.962;16.116;2023-11-22T16:08:33;209.65;;;70.20;;
68647;SDS011;55632;51.962;16.116;2023-11-22T16:13:34;174.73;;;56.17;;
68647;SDS011;55632;51.962;16.116;2023-11-22T16:18:35;145.98;;;45.90;;
68647;SDS011;55632;51.962;16.116;2023-11-22T16:23:38;131.43;;;42.80;;
68647;SDS011;55632;51.962;16.116;2023-11-22T16:33:40;91.50;;;35.22;;
68647;SDS011;55632;51.962;16.116;2023-11-22T16:38:40;71.03;;;29.30;;
68647;SDS011;55632;51.962;16.116;2023-11-22T16:43:41;69.70;;;27.88;;
68647;SDS011;55632;51.962;16.116;2023-11-22T16:48:42;38.63;;;19.27;;
68647;SDS011;55632;51.962;16.116;2023-11-22T16:53:43;33.63;;;15.57;;
68647;SDS011;55632;51.962;16.116;2023-11-22T16:58:44;74.68;;;33.63;;
68647;SDS011;55632;51.962;16.116;2023-11-22T17:03:46;104.78;;;40.40;;
68647;SDS011;55632;51.962;16.116;2023-11-22T17:08:49;93.57;;;44.28;;
68647;SDS011;55632;51.962;16.116;2023-11-22T17:13:50;76.00;;;34.55;;
68647;SDS011;55632;51.962;16.116;2023-11-22T17:23:54;22.80;;;13.60;;
68647;SDS011;55632;51.962;16.116;2023-11-22T17:33:56;27.13;;;14.45;;
68647;SDS011;55632;51.962;16.116;2023-11-22T17:43:57;34.08;;;17.65;;
68647;SDS011;55632;51.962;16.116;2023-11-22T17:48:58;39.78;;;19.67;;
68647;SDS011;55632;51.962;16.116;2023-11-22T17:54:00;51.92;;;23.77;;
68647;SDS011;55632;51.962;16.116;2023-11-22T17:59:01;55.10;;;23.63;;
68647;SDS011;55632;51.962;16.116;2023-11-22T18:04:05;53.70;;;28.95;;
68647;SDS011;55632;51.962;16.116;2023-11-22T18:14:10;63.03;;;30.80;;
68647;SDS011;55632;51.962;16.116;2023-11-22T18:19:11;105.88;;;41.83;;
68647;SDS011;55632;51.962;16.116;2023-11-22T18:24:12;91.97;;;40.05;;
68647;SDS011;55632;51.962;16.116;2023-11-22T18:29:15;141.63;;;53.60;;
68647;SDS011;55632;51.962;16.116;2023-11-22T18:34:16;133.73;;;53.78;;
68647;SDS011;55632;51.962;16.116;2023-11-22T18:39:26;129.05;;;50.92;;
68647;SDS011;55632;51.962;16.116;2023-11-22T18:44:37;112.80;;;44.55;;
68647;SDS011;55632;51.962;16.116;2023-11-22T18:49:45;95.28;;;40.15;;
68647;SDS011;55632;51.962;16.116;2023-11-22T18:54:47;91.90;;;37.85;;
68647;SDS011;55632;51.962;16.116;2023-11-22T18:59:48;87.18;;;36.45;;
68647;SDS011;55632;51.962;16.116;2023-11-22T19:04:50;67.00;;;31.95;;
68647;SDS011;55632;51.962;16.116;2023-11-22T19:09:52;62.67;;;29.30;;
68647;SDS011;55632;51.962;16.116;2023-11-22T19:14:59;56.78;;;26.40;;
68647;SDS011;55632;51.962;16.116;2023-11-22T19:20:02;48.17;;;24.40;;
68647;SDS011;55632;51.962;16.116;2023-11-22T19:25:13;48.30;;;22.35;;
68647;SDS011;55632;51.962;16.116;2023-11-22T19:35:18;39.92;;;20.38;;
68647;SDS011;55632;51.962;16.116;2023-11-22T19:40:25;57.85;;;29.33;;
68647;SDS011;55632;51.962;16.116;2023-11-22T19:45:28;45.40;;;20.40;;
68647;SDS011;55632;51.962;16.116;2023-11-22T19:50:29;36.17;;;17.55;;
68647;SDS011;55632;51.962;16.116;2023-11-22T20:00:31;28.57;;;16.10;;
68647;SDS011;55632;51.962;16.116;2023-11-22T20:05:33;31.25;;;17.45;;
68647;SDS011;55632;51.962;16.116;2023-11-22T20:10:38;28.67;;;15.93;;
68647;SDS011;55632;51.962;16.116;2023-11-22T20:15:39;92.38;;;36.17;;
68647;SDS011;55632;51.962;16.116;2023-11-22T20:20:41;133.60;;;37.65;;
68647;SDS011;55632;51.962;16.116;2023-11-22T20:25:43;131.85;;;34.08;;
68647;SDS011;55632;51.962;16.116;2023-11-22T20:30:44;112.88;;;31.45;;
68647;SDS011;55632;51.962;16.116;2023-11-22T20:35:45;102.78;;;29.15;;
68647;SDS011;55632;51.962;16.116;2023-11-22T20:40:46;105.13;;;32.00;;
68647;SDS011;55632;51.962;16.116;2023-11-22T20:45:48;89.13;;;27.65;;
68647;SDS011;55632;51.962;16.116;2023-11-22T20:50:48;72.50;;;32.03;;
68647;SDS011;55632;51.962;16.116;2023-11-22T20:55:49;38.58;;;19.95;;
68647;SDS011;55632;51.962;16.116;2023-11-22T21:05:51;44.85;;;21.75;;
68647;SDS011;55632;51.962;16.116;2023-11-22T21:15:52;27.60;;;14.52;;
68647;SDS011;55632;51.962;16.116;2023-11-22T21:20:53;26.73;;;14.75;;
68647;SDS011;55632;51.962;16.116;2023-11-22T21:25:56;41.05;;;19.77;;
68647;SDS011;55632;51.962;16.116;2023-11-22T21:30:57;47.33;;;22.95;;
68647;SDS011;55632;51.962;16.116;2023-11-22T21:35:59;26.35;;;15.23;;
68647;SDS011;55632;51.962;16.116;2023-11-22T21:46:02;27.93;;;15.00;;
68647;SDS011;55632;51.962;16.116;2023-11-22T21:51:03;30.52;;;18.63;;
68647;SDS011;55632;51.962;16.116;2023-11-22T21:56:04;25.48;;;13.70;;
68647;SDS011;55632;51.962;16.116;2023-11-22T22:01:05;23.90;;;14.63;;
68647;SDS011;55632;51.962;16.116;2023-11-22T22:06:11;29.45;;;14.07;;
68647;SDS011;55632;51.962;16.116;2023-11-22T22:11:13;26.13;;;15.68;;
68647;SDS011;55632;51.962;16.116;2023-11-22T22:16:14;27.85;;;14.35;;
68647;SDS011;55632;51.962;16.116;2023-11-22T22:21:15;26.98;;;13.90;;
68647;SDS011;55632;51.962;16.116;2023-11-22T22:26:16;32.08;;;17.70;;
68647;SDS011;55632;51.962;16.116;2023-11-22T22:31:17;24.65;;;12.77;;
68647;SDS011;55632;51.962;16.116;2023-11-22T22:36:17;25.67;;;13.20;;
68647;SDS011;55632;51.962;16.116;2023-11-22T22:41:19;24.42;;;13.52;;
68647;SDS011;55632;51.962;16.116;2023-11-22T22:46:21;21.60;;;11.75;;
68647;SDS011;55632;51.962;16.116;2023-11-22T22:51:22;22.23;;;12.82;;
68647;SDS011;55632;51.962;16.116;2023-11-22T22:56:23;24.02;;;13.20;;
68647;SDS011;55632;51.962;16.116;2023-11-22T23:01:23;26.20;;;13.57;;
68647;SDS011;55632;51.962;16.116;2023-11-22T23:11:25;20.70;;;12.63;;
68647;SDS011;55632;51.962;16.116;2023-11-22T23:16:26;23.25;;;13.07;;
68647;SDS011;55632;51.962;16.116;2023-11-22T23:21:28;29.05;;;14.27;;
68647;SDS011;55632;51.962;16.116;2023-11-22T23:26:29;25.88;;;13.85;;
68647;SDS011;55632;51.962;16.116;2023-11-22T23:31:30;27.52;;;13.00;;
68647;SDS011;55632;51.962;16.116;2023-11-22T23:36:31;21.92;;;11.13;;
68647;SDS011;55632;51.962;16.116;2023-11-22T23:41:33;22.55;;;13.40;;
68647;SDS011;55632;51.962;16.116;2023-11-22T23:46:34;23.33;;;13.20;;
68647;SDS011;55632;51.962;16.116;2023-11-22T23:51:36;23.88;;;13.05;;
68647;SDS011;55632;51.962;16.116;2023-11-22T23:56:36;21.33;;;13.63;;
